Time;durP1;ratioP1;P1;durP2;ratioP2;P2;SDS_P1;SDS_P2;PMS_P1;PMS_P2;Temp;Humidity;BMP_temperature;BMP_pressure;BME280_temperature;BME280_humidity;BME280_pressure;Samples;Min_cycle;Max_cycle;Signal;HPM_P1;HPM_P2
2023/08/09 00:00:40;;;;;;;4.28;1.30;;;;;;;18.70;67.43;100715.06;5043818;27;99858;-67
2023/08/09 00:03:07;;;;;;;4.55;1.10;;;;;;;18.72;67.67;100709.56;5045383;27;99462;-67
2023/08/09 00:05:34;;;;;;;4.63;1.48;;;;;;;18.65;67.96;100713.63;5047644;27;96791;-67
2023/08/09 00:08:00;;;;;;;3.20;1.17;;;;;;;18.55;67.94;100716.09;5038020;27;96898;-67
2023/08/09 00:10:27;;;;;;;1.58;1.00;;;;;;;18.47;68.17;100714.88;5047465;27;98050;-67
2023/08/09 00:12:53;;;;;;;2.65;1.35;;;;;;;18.35;68.82;100723.75;5046720;27;98844;-68
2023/08/09 00:15:19;;;;;;;5.03;1.10;;;;;;;18.45;68.57;100711.44;5054246;27;96867;-68
2023/08/09 00:17:47;;;;;;;5.28;1.10;;;;;;;18.48;68.22;100722.81;5043753;27;98477;-68
2023/08/09 00:20:14;;;;;;;3.58;1.13;;;;;;;18.39;68.33;100717.22;5050132;27;103115;-68
2023/08/09 00:22:41;;;;;;;2.17;0.95;;;;;;;18.43;68.56;100722.25;5050171;27;99226;-68
2023/08/09 00:25:10;;;;;;;3.75;1.25;;;;;;;18.30;68.24;100726.75;5053893;27;96762;-67
2023/08/09 00:27:37;;;;;;;3.80;1.40;;;;;;;18.33;68.24;100722.03;5045640;27;97685;-67
2023/08/09 00:30:04;;;;;;;1.85;1.02;;;;;;;18.30;68.39;100726.75;5053042;27;98864;-66
2023/08/09 00:32:30;;;;;;;1.77;0.98;;;;;;;18.38;67.58;100726.22;5050410;27;100514;-68
2023/08/09 00:34:59;;;;;;;4.22;1.27;;;;;;;18.23;68.54;100722.75;5049494;27;97006;-67
2023/08/09 00:37:26;;;;;;;4.80;1.02;;;;;;;18.36;68.12;100731.66;5044771;27;97868;-67
2023/08/09 00:39:53;;;;;;;2.75;0.93;;;;;;;18.39;67.84;100731.44;5046319;27;98882;-67
2023/08/09 00:42:19;;;;;;;2.72;1.10;;;;;;;18.17;68.59;100732.06;5046273;27;98902;-67
2023/08/09 00:44:46;;;;;;;4.13;0.98;;;;;;;18.28;67.54;100732.19;5046012;27;96811;-66
2023/08/09 00:47:12;;;;;;;1.23;1.13;;;;;;;18.23;68.00;100725.44;5044948;27;98181;-67
2023/08/09 00:49:39;;;;;;;3.33;0.90;;;;;;;18.34;67.80;100728.22;5044887;27;99171;-67
2023/08/09 00:52:07;;;;;;;1.60;0.70;;;;;;;18.40;66.91;100733.16;5047986;27;97695;-67
2023/08/09 00:54:33;;;;;;;2.53;1.00;;;;;;;18.22;67.58;100737.09;5045287;27;96768;-66
2023/08/09 00:57:00;;;;;;;1.83;1.00;;;;;;;18.24;67.34;100740.53;5046989;27;98456;-66
2023/08/09 00:59:27;;;;;;;2.90;0.88;;;;;;;18.14;67.58;100742.09;5041787;27;99218;-66
2023/08/09 01:01:54;;;;;;;2.47;1.30;;;;;;;18.15;67.50;100746.47;5047791;27;98297;-66
2023/08/09 01:04:20;;;;;;;2.72;1.00;;;;;;;18.31;67.52;100745.34;5050245;27;96893;-66
2023/08/09 01:06:53;;;;;;;5.32;1.17;;;;;;;18.42;66.93;100755.31;5047315;27;98226;-66
2023/08/09 01:09:38;;;;;;;4.45;1.10;;;;;;;18.58;66.58;100744.44;5045804;27;98451;-66
2023/08/09 01:12:08;;;;;;;5.82;1.25;;;;;;;18.63;65.82;100734.31;5044446;27;98748;-66
2023/08/09 01:14:37;;;;;;;6.80;0.95;;;;;;;18.73;65.99;100729.16;5050703;27;96762;-68
2023/08/09 01:17:06;;;;;;;3.58;1.10;;;;;;;18.45;66.46;100725.66;5044166;27;97810;-67
2023/08/09 01:19:42;;;;;;;4.00;0.80;;;;;;;18.79;65.18;100728.72;5046818;27;99073;-67
2023/08/09 01:22:15;;;;;;;6.82;1.30;;;;;;;18.77;64.93;100741.38;5048683;27;101365;-67
2023/08/09 01:24:43;;;;;;;8.88;1.15;;;;;;;18.81;65.08;100740.19;5046802;27;97006;-67
2023/08/09 01:27:10;;;;;;;2.90;0.80;;;;;;;18.75;65.02;100733.44;5047395;27;98736;-65
2023/08/09 01:29:36;;;;;;;3.30;1.40;;;;;;;18.66;65.51;100740.28;5048000;27;99268;-65
2023/08/09 01:32:03;;;;;;;4.25;1.10;;;;;;;18.69;65.48;100745.44;5055507;27;100021;-65
2023/08/09 01:34:30;;;;;;;3.33;1.02;;;;;;;18.90;65.13;100747.59;5048919;27;97847;-65
2023/08/09 01:37:03;;;;;;;4.22;1.60;;;;;;;18.84;64.96;100738.16;5043763;27;97487;-64
2023/08/09 01:39:35;;;;;;;1.58;1.02;;;;;;;18.80;65.28;100742.00;5050199;27;99020;-65
2023/08/09 01:42:04;;;;;;;2.50;1.00;;;;;;;18.77;65.61;100741.38;5048412;27;98840;-65
2023/08/09 01:44:31;;;;;;;7.03;1.15;;;;;;;18.71;65.86;100735.47;5049157;27;98934;-65
2023/08/09 01:46:58;;;;;;;3.90;1.00;;;;;;;18.87;65.04;100737.09;5048217;27;96809;-65
2023/08/09 01:49:24;;;;;;;5.88;1.00;;;;;;;18.66;65.84;100742.09;5045263;27;101874;-65
2023/08/09 01:51:52;;;;;;;3.97;0.90;;;;;;;18.65;65.59;100737.72;5046872;27;98920;-65
2023/08/09 01:54:19;;;;;;;3.97;1.10;;;;;;;18.80;65.37;100731.31;5044131;27;96871;-66
2023/08/09 01:56:45;;;;;;;3.42;0.90;;;;;;;18.78;65.00;100729.69;5037049;27;96893;-65
2023/08/09 01:59:14;;;;;;;3.08;1.00;;;;;;;18.80;64.82;100730.44;5045614;27;98918;-65
2023/08/09 02:01:42;;;;;;;3.88;0.90;;;;;;;18.78;65.07;100722.50;5039749;27;102091;-65
2023/08/09 02:04:09;;;;;;;3.28;1.20;;;;;;;18.89;64.61;100719.09;5047223;27;99104;-66
2023/08/09 02:06:38;;;;;;;4.82;1.00;;;;;;;18.69;64.50;100724.03;5049160;27;98632;-66
2023/08/09 02:09:06;;;;;;;4.97;1.13;;;;;;;18.90;64.61;100724.38;5044108;27;98946;-66
2023/08/09 02:11:32;;;;;;;2.58;1.08;;;;;;;18.91;64.65;100722.50;5037722;27;99795;-66
2023/08/09 02:13:59;;;;;;;3.25;1.10;;;;;;;18.78;65.41;100724.34;5047594;27;97674;-66
2023/08/09 02:16:26;;;;;;;1.73;0.90;;;;;;;18.53;65.51;100726.00;5049428;27;96749;-66
2023/08/09 02:18:53;;;;;;;3.60;1.20;;;;;;;18.78;65.61;100719.84;5048361;27;99020;-66
2023/08/09 02:21:19;;;;;;;3.83;1.10;;;;;;;18.86;65.84;100728.19;5042109;27;98925;-66
2023/08/09 02:23:45;;;;;;;4.88;1.20;;;;;;;18.67;66.06;100733.13;5048148;27;97906;-66
2023/08/09 02:26:13;;;;;;;4.82;1.30;;;;;;;18.88;65.43;100731.63;5045498;27;96785;-66
2023/08/09 02:28:40;;;;;;;3.08;1.05;;;;;;;18.73;65.80;100732.69;5053442;27;101657;-66
2023/08/09 02:31:08;;;;;;;2.53;1.05;;;;;;;18.91;65.29;100735.91;5048510;27;100118;-65
2023/08/09 02:33:35;;;;;;;1.48;0.80;;;;;;;18.85;65.43;100737.19;5051535;27;97026;-66
2023/08/09 02:36:02;;;;;;;3.42;0.82;;;;;;;18.57;66.06;100743.63;5044588;27;96999;-66
2023/08/09 02:38:31;;;;;;;6.20;1.05;;;;;;;18.56;66.24;100747.25;5042096;27;99043;-66
2023/08/09 02:40:58;;;;;;;1.98;0.90;;;;;;;18.76;65.46;100742.34;5043047;27;99255;-66
2023/08/09 02:43:25;;;;;;;3.17;1.00;;;;;;;18.88;65.10;100738.81;5049847;27;96857;-66
2023/08/09 02:45:52;;;;;;;3.63;1.10;;;;;;;18.71;65.73;100737.28;5047502;27;96909;-66
2023/08/09 02:48:18;;;;;;;3.03;1.00;;;;;;;18.61;65.25;100741.56;5049792;27;99409;-66
2023/08/09 02:50:46;;;;;;;2.28;1.00;;;;;;;18.63;66.39;100735.16;5040986;27;98743;-66
2023/08/09 02:53:13;;;;;;;3.17;0.93;;;;;;;18.80;65.40;100743.84;5050058;27;96785;-65
2023/08/09 02:55:40;;;;;;;5.32;1.00;;;;;;;18.66;65.32;100745.66;5042991;27;96897;-65
2023/08/09 02:58:07;;;;;;;3.25;0.90;;;;;;;18.39;65.61;100744.81;5048508;27;100734;-65
2023/08/09 03:00:34;;;;;;;3.33;0.85;;;;;;;18.40;64.06;100751.03;5043326;27;98834;-65
2023/08/09 03:03:04;;;;;;;4.97;0.90;;;;;;;18.51;63.81;100752.00;5048187;27;96822;-65
2023/08/09 03:05:31;;;;;;;3.97;1.20;;;;;;;18.57;62.63;100746.28;5044051;27;96851;-65
2023/08/09 03:07:59;;;;;;;2.08;1.00;;;;;;;18.70;62.54;100749.84;5049130;27;98853;-65
2023/08/09 03:10:26;;;;;;;6.07;1.02;;;;;;;18.56;62.77;100752.59;5049492;27;101289;-66
2023/08/09 03:12:52;;;;;;;3.17;0.88;;;;;;;18.93;61.24;100742.00;5044273;27;98635;-66
2023/08/09 03:15:19;;;;;;;3.30;1.20;;;;;;;18.95;60.48;100750.81;5053293;27;97176;-66
2023/08/09 03:17:46;;;;;;;1.65;0.93;;;;;;;18.65;62.14;100749.28;5051570;27;97898;-66
2023/08/09 03:20:14;;;;;;;5.68;1.40;;;;;;;18.74;62.13;100744.25;5048906;27;98881;-66
2023/08/09 03:22:40;;;;;;;5.68;1.25;;;;;;;18.67;62.59;100758.06;5046904;27;97408;-66
2023/08/09 03:25:08;;;;;;;2.33;1.08;;;;;;;18.44;63.94;100753.41;5046771;27;96770;-66
2023/08/09 03:27:35;;;;;;;1.13;0.77;;;;;;;18.56;63.43;100757.97;5049574;27;98935;-66
2023/08/09 03:30:03;;;;;;;2.92;1.20;;;;;;;18.51;63.53;100761.88;5050195;27;99175;-65
2023/08/09 03:32:30;;;;;;;3.22;1.00;;;;;;;18.59;64.12;100770.25;5053874;27;96821;-65
2023/08/09 03:34:56;;;;;;;2.80;1.30;;;;;;;18.22;64.53;100774.53;5049039;27;97551;-65
2023/08/09 03:37:22;;;;;;;5.30;1.00;;;;;;;18.57;64.33;100770.38;5044378;27;98975;-66
2023/08/09 03:39:49;;;;;;;2.40;0.90;;;;;;;18.63;63.40;100771.78;5047129;27;99347;-65
2023/08/09 03:42:16;;;;;;;7.63;1.02;;;;;;;18.58;61.99;100776.56;5048262;27;96790;-65
2023/08/09 03:44:43;;;;;;;1.50;0.90;;;;;;;18.62;63.23;100778.94;5051377;27;96842;-65
2023/08/09 03:47:09;;;;;;;4.63;1.20;;;;;;;18.77;61.61;100789.56;5044023;27;100016;-65
2023/08/09 03:49:35;;;;;;;2.65;1.00;;;;;;;18.82;60.44;100790.97;5040298;27;98825;-65
2023/08/09 03:52:02;;;;;;;2.10;0.93;;;;;;;18.67;60.52;100787.50;5041428;27;97733;-65
2023/08/09 03:54:30;;;;;;;3.28;0.90;;;;;;;18.63;60.22;100779.81;5048734;27;96846;-65
2023/08/09 03:56:56;;;;;;;3.03;1.00;;;;;;;18.62;60.74;100786.97;5045638;27;98953;-65
2023/08/09 03:59:24;;;;;;;3.40;1.00;;;;;;;18.73;59.89;100782.69;5047806;27;98749;-65
2023/08/09 04:01:50;;;;;;;3.60;1.00;;;;;;;18.44;61.00;100781.97;5042669;27;99334;-65
2023/08/09 04:04:16;;;;;;;4.78;1.00;;;;;;;18.36;60.70;100782.50;5048436;27;96806;-65
2023/08/09 04:06:45;;;;;;;4.90;1.10;;;;;;;18.39;61.35;100784.94;5041614;27;98963;-65
2023/08/09 04:09:12;;;;;;;5.13;1.38;;;;;;;18.42;60.96;100790.09;5052237;27;98480;-65
2023/08/09 04:11:38;;;;;;;3.15;0.80;;;;;;;18.55;61.72;100788.34;5050987;27;97663;-65
2023/08/09 04:14:05;;;;;;;2.95;0.93;;;;;;;18.64;61.42;100790.38;5042171;27;99053;-64
2023/08/09 04:16:33;;;;;;;4.30;0.85;;;;;;;18.55;62.01;100791.03;5045405;27;98220;-65
2023/08/09 04:18:59;;;;;;;5.68;1.02;;;;;;;18.57;61.78;100794.47;5044213;27;98818;-64
2023/08/09 04:21:25;;;;;;;1.75;0.90;;;;;;;18.57;61.56;100805.16;5045919;27;98297;-65
2023/08/09 04:23:52;;;;;;;1.85;1.00;;;;;;;18.64;60.95;100798.41;5046557;27;97198;-66
2023/08/09 04:26:18;;;;;;;7.05;0.82;;;;;;;18.53;61.72;100800.94;5046911;27;98851;-64
2023/08/09 04:28:45;;;;;;;3.53;0.98;;;;;;;18.68;61.33;100799.94;5040200;27;98977;-64
2023/08/09 04:31:12;;;;;;;3.80;1.33;;;;;;;18.81;60.75;100809.78;5045548;27;97610;-64
2023/08/09 04:33:40;;;;;;;2.92;1.00;;;;;;;18.96;60.79;100806.06;5048449;27;97173;-66
2023/08/09 04:36:07;;;;;;;2.65;1.00;;;;;;;18.89;60.47;100818.16;5051293;27;101431;-65
2023/08/09 04:38:33;;;;;;;1.30;0.90;;;;;;;18.99;60.45;100816.56;5044356;27;98995;-65
2023/08/09 04:41:00;;;;;;;10.35;1.88;;;;;;;19.01;60.22;100809.28;5045897;27;98573;-65
2023/08/09 04:43:26;;;;;;;3.78;1.05;;;;;;;19.06;59.94;100807.13;5048387;27;97480;-65
2023/08/09 04:45:53;;;;;;;2.40;0.82;;;;;;;19.00;59.97;100824.50;5047740;27;99165;-66
2023/08/09 04:48:20;;;;;;;3.17;1.00;;;;;;;18.78;60.29;100818.03;5053336;27;98826;-65
2023/08/09 04:50:48;;;;;;;6.22;1.40;;;;;;;18.92;59.53;100826.84;5051016;27;97123;-66
2023/08/09 04:53:14;;;;;;;4.35;1.00;;;;;;;18.97;59.45;100831.91;5044435;27;96856;-65
2023/08/09 04:55:41;;;;;;;2.33;0.77;;;;;;;19.00;58.98;100840.56;5040853;27;102701;-65
2023/08/09 04:58:08;;;;;;;1.88;0.77;;;;;;;19.22;59.00;100834.59;5039456;27;98765;-65
2023/08/09 05:00:34;;;;;;;6.80;1.00;;;;;;;19.15;58.21;100833.28;5042674;27;97051;-67
2023/08/09 05:03:00;;;;;;;3.33;0.90;;;;;;;19.10;57.03;100840.75;5047837;27;98651;-64
2023/08/09 05:05:29;;;;;;;6.63;1.08;;;;;;;19.11;56.77;100837.13;5043888;27;101549;-65
2023/08/09 05:07:57;;;;;;;5.45;0.85;;;;;;;19.12;57.69;100841.53;5035755;27;98344;-65
2023/08/09 05:10:24;;;;;;;4.78;0.90;;;;;;;19.01;57.12;100842.28;5041565;27;97912;-65
2023/08/09 05:12:50;;;;;;;4.47;0.98;;;;;;;18.87;57.70;100838.81;5052759;27;96752;-65
2023/08/09 05:15:17;;;;;;;8.30;1.08;;;;;;;18.90;57.51;100843.97;5041115;27;99059;-66
2023/08/09 05:17:43;;;;;;;2.83;1.38;;;;;;;18.84;57.73;100844.41;5042469;27;98071;-65
2023/08/09 05:20:11;;;;;;;4.50;1.20;;;;;;;19.06;57.52;100848.16;5044979;27;97085;-66
2023/08/09 05:22:38;;;;;;;6.82;0.80;;;;;;;19.14;57.00;100847.63;5043978;27;97862;-66
2023/08/09 05:25:06;;;;;;;5.13;1.08;;;;;;;19.28;56.91;100852.03;5044214;27;98970;-66
2023/08/09 05:27:33;;;;;;;7.72;1.02;;;;;;;19.03;56.85;100858.25;5044260;27;99451;-66
2023/08/09 05:29:59;;;;;;;6.05;1.00;;;;;;;19.12;56.91;100857.59;5046524;27;97642;-65
2023/08/09 05:32:26;;;;;;;3.53;1.10;;;;;;;19.22;56.40;100866.72;5051144;27;96964;-66
2023/08/09 05:34:52;;;;;;;5.95;1.20;;;;;;;19.01;56.56;100857.47;5048442;27;98890;-65
2023/08/09 05:37:19;;;;;;;4.25;0.93;;;;;;;19.40;55.90;100852.03;5047424;27;98172;-65
2023/08/09 05:39:45;;;;;;;4.35;1.08;;;;;;;20.01;54.69;100854.88;5047531;27;99126;-66
2023/08/09 05:42:13;;;;;;;3.80;1.00;;;;;;;20.77;51.96;100854.53;5043750;27;98114;-65
2023/08/09 05:44:39;;;;;;;6.57;1.25;;;;;;;21.13;50.45;100862.47;5042900;27;96999;-64
2023/08/09 05:47:05;;;;;;;5.32;1.00;;;;;;;20.76;50.42;100853.69;5049851;27;98860;-65
2023/08/09 05:49:32;;;;;;;3.60;1.00;;;;;;;20.54;50.87;100854.47;5047147;27;97149;-65
2023/08/09 05:51:59;;;;;;;9.10;1.52;;;;;;;20.57;50.66;100846.16;5047004;27;96933;-67
2023/08/09 05:54:25;;;;;;;7.15;1.05;;;;;;;20.53;51.25;100857.25;5042764;27;99272;-65
2023/08/09 05:56:52;;;;;;;5.00;0.98;;;;;;;20.65;51.05;100850.97;5045672;27;98864;-66
2023/08/09 05:59:19;;;;;;;5.60;1.50;;;;;;;21.21;50.26;100856.50;5043051;27;96983;-66
2023/08/09 06:01:46;;;;;;;3.90;1.02;;;;;;;21.30;49.49;100863.88;5039950;27;96871;-65
2023/08/09 06:04:13;;;;;;;4.57;1.25;;;;;;;21.11;50.11;100864.41;5045884;27;98804;-66
2023/08/09 06:06:39;;;;;;;3.58;0.90;;;;;;;21.29;49.78;100871.06;5049786;27;97812;-65
2023/08/09 06:09:06;;;;;;;5.00;1.10;;;;;;;21.07;49.61;100857.53;5042934;27;98982;-66
2023/08/09 06:11:33;;;;;;;1.67;0.73;;;;;;;21.07;49.92;100868.28;5046831;27;97003;-66
2023/08/09 06:14:00;;;;;;;4.40;1.25;;;;;;;21.07;49.79;100874.53;5048103;27;98936;-65
2023/08/09 06:16:28;;;;;;;3.70;0.95;;;;;;;21.06;50.07;100872.84;5044628;27;98604;-66
2023/08/09 06:18:54;;;;;;;2.72;1.00;;;;;;;20.97;50.40;100867.31;5047796;27;96722;-66
2023/08/09 06:21:21;;;;;;;1.98;1.00;;;;;;;21.02;50.59;100870.47;5044371;27;97144;-67
2023/08/09 06:23:47;;;;;;;3.17;1.00;;;;;;;20.76;51.18;100868.94;5045568;27;97687;-66
2023/08/09 06:26:14;;;;;;;4.43;1.10;;;;;;;20.10;52.87;100867.59;5048787;27;99562;-66
2023/08/09 06:28:41;;;;;;;9.73;1.73;;;;;;;20.13;54.15;100867.38;5042776;27;97256;-65
2023/08/09 06:31:07;;;;;;;3.00;1.08;;;;;;;20.15;54.14;100865.44;5052959;27;97578;-65
2023/08/09 06:33:40;;;;;;;5.90;1.10;;;;;;;19.88;55.10;100879.03;5048632;27;99014;-65
2023/08/09 06:36:08;;;;;;;5.85;1.35;;;;;;;19.89;54.81;100886.09;5047129;27;97837;-65
2023/08/09 06:38:34;;;;;;;5.57;1.05;;;;;;;20.09;55.06;100887.31;5053064;27;96854;-67
2023/08/09 06:41:01;;;;;;;4.65;0.85;;;;;;;20.42;54.72;100881.34;5048565;27;97060;-65
2023/08/09 06:43:29;;;;;;;3.55;1.25;;;;;;;21.08;52.95;100886.13;5048514;27;100049;-66
2023/08/09 06:45:58;;;;;;;7.75;1.42;;;;;;;21.22;52.41;100888.66;5051510;27;98705;-67
2023/08/09 06:48:24;;;;;;;5.20;1.08;;;;;;;21.33;51.74;100887.81;5043628;27;98535;-66
2023/08/09 06:50:52;;;;;;;5.53;1.25;;;;;;;21.42;50.96;100887.94;5050410;27;97003;-66
2023/08/09 06:53:19;;;;;;;5.03;0.88;;;;;;;21.82;49.90;100880.25;5047395;27;98101;-65
2023/08/09 06:55:45;;;;;;;3.58;1.15;;;;;;;21.59;50.82;100888.47;5054171;27;98824;-65
2023/08/09 06:58:11;;;;;;;4.20;1.10;;;;;;;21.40;49.82;100897.09;5046506;27;96823;-66
2023/08/09 07:00:38;;;;;;;6.88;1.17;;;;;;;21.45;49.66;100892.25;5040143;27;97070;-67
2023/08/09 07:03:05;;;;;;;5.55;1.20;;;;;;;21.28;49.23;100890.00;5046843;27;99759;-67
2023/08/09 07:05:31;;;;;;;3.85;1.20;;;;;;;21.15;49.67;100889.19;5047250;27;98844;-65
2023/08/09 07:07:59;;;;;;;9.07;1.65;;;;;;;20.98;50.60;100886.00;5054352;27;97493;-65
2023/08/09 07:10:26;;;;;;;20.67;2.17;;;;;;;21.74;49.22;100887.22;5038461;27;97315;-65
2023/08/09 07:12:55;;;;;;;9.00;1.38;;;;;;;21.94;48.16;100897.25;5029182;27;99239;-65
2023/08/09 07:15:21;;;;;;;10.65;1.38;;;;;;;21.92;47.84;100901.06;5028502;27;98869;-65
2023/08/09 07:17:48;;;;;;;9.50;1.67;;;;;;;22.15;47.69;100894.69;5045045;27;97102;-65
2023/08/09 07:20:15;;;;;;;38.05;2.70;;;;;;;22.72;46.21;100901.63;5048011;27;97679;-65
2023/08/09 07:22:41;;;;;;;14.32;1.80;;;;;;;23.19;45.24;100898.50;5039090;27;99217;-65
2023/08/09 07:25:10;;;;;;;5.15;1.10;;;;;;;22.82;45.26;100897.22;5041768;27;99306;-66
2023/08/09 07:27:41;;;;;;;7.90;1.10;;;;;;;22.56;46.01;100896.69;5048447;27;97731;-65
2023/08/09 07:30:09;;;;;;;7.63;1.27;;;;;;;22.67;46.05;100902.88;5046408;27;97042;-65
2023/08/09 07:32:37;;;;;;;9.35;1.88;;;;;;;22.35;45.95;100912.75;5046536;27;101204;-66
2023/08/09 07:35:04;;;;;;;8.52;2.78;;;;;;;22.19;46.43;100907.75;5044233;27;99402;-66
2023/08/09 07:37:31;;;;;;;7.00;1.55;;;;;;;22.52;46.54;100914.06;5043462;27;96923;-66
2023/08/09 07:39:57;;;;;;;5.30;1.23;;;;;;;22.33;46.24;100912.03;5046412;27;97251;-66
2023/08/09 07:42:25;;;;;;;7.35;1.83;;;;;;;22.04;46.53;100927.00;5048897;27;98959;-68
2023/08/09 07:44:52;;;;;;;9.02;1.17;;;;;;;22.29;46.37;100923.19;5048611;27;99359;-66
2023/08/09 07:47:19;;;;;;;8.00;1.30;;;;;;;22.38;45.17;100936.75;5038391;27;98835;-64
2023/08/09 07:49:46;;;;;;;5.47;1.30;;;;;;;22.83;44.41;100928.56;5039544;27;99093;-65
2023/08/09 07:52:12;;;;;;;6.80;1.10;;;;;;;22.78;45.04;100928.06;5040731;27;101342;-65
2023/08/09 07:54:39;;;;;;;5.85;1.20;;;;;;;23.53;43.47;100944.16;5047765;27;100871;-65
2023/08/09 07:57:05;;;;;;;5.15;1.17;;;;;;;23.69;43.12;100939.16;5046724;27;97736;-65
2023/08/09 07:59:35;;;;;;;7.60;1.35;;;;;;;23.22;43.22;100941.38;5047877;27;96965;-66
2023/08/09 08:02:01;;;;;;;5.63;1.27;;;;;;;23.04;43.99;100942.91;5034372;27;100461;-66
2023/08/09 08:04:29;;;;;;;6.00;1.25;;;;;;;22.66;44.27;100949.66;5042442;27;97909;-66
2023/08/09 08:06:56;;;;;;;5.40;1.45;;;;;;;22.64;45.12;100946.22;5046152;27;96981;-66
2023/08/09 08:09:23;;;;;;;20.08;4.13;;;;;;;23.07;44.22;100948.06;5044201;27;97529;-65
2023/08/09 08:11:50;;;;;;;3.45;1.20;;;;;;;22.96;44.17;100954.38;5047089;27;99855;-65
2023/08/09 08:14:16;;;;;;;17.65;1.90;;;;;;;22.78;43.83;100957.72;5042190;27;98760;-67
2023/08/09 08:16:44;;;;;;;4.22;0.82;;;;;;;22.70;44.03;100965.56;5046810;27;97554;-66
2023/08/09 08:19:10;;;;;;;4.55;1.02;;;;;;;23.25;43.66;100970.75;5045909;27;97578;-67
2023/08/09 08:21:37;;;;;;;7.00;1.60;;;;;;;23.49;42.59;100969.69;5042511;27;99106;-66
2023/08/09 08:24:07;;;;;;;3.85;1.25;;;;;;;23.27;42.56;100963.41;5048362;27;98789;-65
2023/08/09 08:26:34;;;;;;;7.60;1.92;;;;;;;23.33;42.16;100962.03;5044364;27;97853;-65
2023/08/09 08:29:02;;;;;;;17.10;1.67;;;;;;;23.55;42.14;100964.63;5049291;27;98047;-65
2023/08/09 08:31:28;;;;;;;9.35;1.55;;;;;;;24.29;41.12;100959.88;5045494;27;100538;-66
2023/08/09 08:33:56;;;;;;;10.25;1.67;;;;;;;24.79;40.33;100963.44;5049978;27;99252;-66
2023/08/09 08:36:22;;;;;;;10.32;1.20;;;;;;;24.76;40.12;100965.53;5044132;27;96796;-66
2023/08/09 08:38:49;;;;;;;10.40;1.20;;;;;;;24.80;39.33;100972.38;5043366;27;97643;-66
2023/08/09 08:41:15;;;;;;;4.15;1.30;;;;;;;24.46;40.23;100971.88;5043801;27;98239;-65
2023/08/09 08:43:43;;;;;;;6.18;1.52;;;;;;;24.55;39.35;100977.28;5043603;27;98870;-68
2023/08/09 08:46:15;;;;;;;9.55;1.55;;;;;;;24.04;40.32;100980.06;5041717;27;101040;-66
2023/08/09 08:48:47;;;;;;;8.07;1.25;;;;;;;24.25;39.93;100973.81;5050177;27;97494;-66
2023/08/09 08:51:15;;;;;;;6.50;1.63;;;;;;;24.32;39.27;100980.38;5043501;27;99134;-66
2023/08/09 08:53:42;;;;;;;6.22;1.10;;;;;;;23.86;40.71;100984.41;5046096;27;98705;-66
2023/08/09 08:56:08;;;;;;;4.35;1.17;;;;;;;23.97;40.64;100991.53;5044479;27;97415;-65
2023/08/09 08:58:35;;;;;;;4.65;0.85;;;;;;;24.03;41.18;100991.84;5045419;27;98517;-66
2023/08/09 09:01:04;;;;;;;5.68;1.05;;;;;;;23.88;40.78;100998.63;5040905;27;101363;-65
2023/08/09 09:03:30;;;;;;;7.05;1.02;;;;;;;23.65;41.48;100994.34;5042697;27;98844;-65
2023/08/09 09:05:56;;;;;;;7.85;1.42;;;;;;;23.44;41.04;101000.56;5046163;27;96813;-67
2023/08/09 09:08:25;;;;;;;3.92;0.80;;;;;;;23.54;40.98;101000.69;5044908;27;96827;-66
2023/08/09 09:10:54;;;;;;;6.53;1.17;;;;;;;24.16;39.72;101008.69;5042796;27;98866;-67
2023/08/09 09:13:25;;;;;;;7.57;1.25;;;;;;;24.71;37.96;101002.94;5047495;27;99025;-64
2023/08/09 09:15:52;;;;;;;6.88;1.10;;;;;;;25.09;37.64;101010.28;5048008;27;97363;-65
2023/08/09 09:18:20;;;;;;;4.75;1.08;;;;;;;25.11;37.52;101005.59;5045981;27;97213;-65
2023/08/09 09:20:47;;;;;;;4.95;1.08;;;;;;;25.13;36.95;101009.88;5046949;27;99067;-65
2023/08/09 09:23:27;;;;;;;7.88;1.27;;;;;;;25.18;35.96;101014.84;5042326;27;98790;-66
2023/08/09 09:26:06;;;;;;;6.38;1.48;;;;;;;25.02;37.00;101012.69;5045999;27;97548;-65
2023/08/09 09:28:39;;;;;;;7.07;2.25;;;;;;;25.27;36.52;101014.81;5046429;27;97778;-65
2023/08/09 09:31:06;;;;;;;4.45;1.25;;;;;;;25.84;36.48;101014.97;5039170;27;101141;-65
2023/08/09 09:33:34;;;;;;;4.50;2.03;;;;;;;24.79;37.62;101020.19;5038205;27;98870;-66
2023/08/09 09:36:00;;;;;;;7.00;1.15;;;;;;;25.11;36.66;101009.16;5045950;27;97126;-66
2023/08/09 09:38:28;;;;;;;8.85;1.40;;;;;;;24.94;36.87;101012.56;5041851;27;97236;-65
2023/08/09 09:40:56;;;;;;;5.13;1.48;;;;;;;25.04;36.82;101017.97;5041370;27;98985;-65
2023/08/09 09:43:23;;;;;;;6.75;0.80;;;;;;;25.15;36.46;101012.41;5042521;27;99790;-65
2023/08/09 09:45:53;;;;;;;8.68;1.00;;;;;;;24.90;36.96;101006.56;5047942;27;97019;-65
2023/08/09 09:48:20;;;;;;;4.95;1.50;;;;;;;24.40;36.20;101021.91;5043593;27;97318;-65
2023/08/09 09:50:48;;;;;;;4.82;1.20;;;;;;;24.21;36.25;101027.22;5040695;27;99150;-66
2023/08/09 09:53:16;;;;;;;7.35;1.10;;;;;;;24.14;36.64;101026.03;5043097;27;98952;-66
2023/08/09 09:55:44;;;;;;;4.90;1.08;;;;;;;24.33;36.71;101009.09;5047463;27;97482;-67
2023/08/09 09:58:12;;;;;;;5.25;0.80;;;;;;;24.44;37.03;101019.78;5041439;27;98860;-65
2023/08/09 10:00:41;;;;;;;6.20;1.05;;;;;;;24.23;36.58;101015.28;5043376;27;98992;-65
2023/08/09 10:03:10;;;;;;;4.28;1.20;;;;;;;24.51;36.09;101019.09;5043173;27;99184;-65
2023/08/09 10:05:38;;;;;;;4.20;1.13;;;;;;;25.09;34.63;101013.84;5048284;27;97279;-66
2023/08/09 10:08:07;;;;;;;5.82;1.20;;;;;;;25.27;33.89;101005.88;5050353;27;97414;-65
2023/08/09 10:10:35;;;;;;;5.47;1.30;;;;;;;25.88;33.34;101013.66;5045897;27;98992;-65
2023/08/09 10:13:05;;;;;;;6.13;1.30;;;;;;;26.29;33.24;101012.41;5048968;27;99131;-68
2023/08/09 10:15:35;;;;;;;8.68;1.00;;;;;;;26.14;33.13;101014.72;5044797;27;97430;-65
2023/08/09 10:18:10;;;;;;;6.15;0.70;;;;;;;26.07;33.85;101005.47;5048024;27;97393;-65
2023/08/09 10:20:38;;;;;;;3.65;1.10;;;;;;;26.06;32.71;101007.31;5037329;27;99113;-65
2023/08/09 10:23:05;;;;;;;7.78;1.23;;;;;;;25.95;32.28;101006.66;5047684;27;98755;-66
2023/08/09 10:25:53;;;;;;;8.25;2.05;;;;;;;26.28;32.26;101008.84;5045911;27;97146;-66
2023/08/09 10:28:47;;;;;;;2.28;0.80;;;;;;;26.28;31.79;101011.56;5040988;27;98112;-66
2023/08/09 10:31:15;;;;;;;16.58;1.80;;;;;;;26.54;31.93;101018.00;5043876;27;101547;-66
2023/08/09 10:33:42;;;;;;;5.38;1.35;;;;;;;25.74;32.89;101015.81;5041410;27;98770;-66
2023/08/09 10:36:13;;;;;;;5.78;1.30;;;;;;;26.09;33.58;101026.00;5036344;27;97737;-66
2023/08/09 10:38:41;;;;;;;5.05;1.05;;;;;;;25.89;33.74;101018.94;5042452;27;97305;-67
2023/08/09 10:41:09;;;;;;;4.95;1.17;;;;;;;25.89;34.13;101028.91;5044643;27;99684;-65
2023/08/09 10:43:36;;;;;;;8.52;1.45;;;;;;;25.80;33.91;101028.75;5049263;27;100198;-66
2023/08/09 10:49:00;;;;;;;4.05;0.93;;;;;;;25.54;34.61;101035.75;5064618;27;97128;-66
2023/08/09 10:51:27;;;;;;;8.27;1.20;;;;;;;25.24;35.38;101034.06;5036739;27;97081;-65
2023/08/09 10:53:57;;;;;;;6.10;1.02;;;;;;;25.31;35.61;101032.50;5046677;27;99280;-65
2023/08/09 10:56:32;;;;;;;6.60;1.25;;;;;;;24.87;36.00;101043.81;5033360;27;99181;-65
2023/08/09 10:59:07;;;;;;;4.33;1.63;;;;;;;24.34;37.00;101044.06;5039988;27;98283;-65
2023/08/09 11:01:34;;;;;;;4.40;1.08;;;;;;;23.63;39.25;101053.00;5040487;27;97189;-65
2023/08/09 11:04:06;;;;;;;3.22;1.23;;;;;;;23.73;40.31;101060.16;5041597;27;99991;-66
2023/08/09 11:06:34;;;;;;;5.45;0.93;;;;;;;23.88;40.76;101049.03;5036966;27;99044;-66
2023/08/09 11:09:06;;;;;;;5.32;1.05;;;;;;;23.54;41.75;101056.47;5044061;27;97846;-66
2023/08/09 11:11:34;;;;;;;3.78;1.10;;;;;;;23.52;41.47;101055.72;5042323;27;96818;-66
2023/08/09 11:14:00;;;;;;;5.97;0.98;;;;;;;23.24;42.65;101062.53;5037724;27;99596;-65
2023/08/09 11:16:27;;;;;;;2.15;0.82;;;;;;;23.36;42.54;101064.22;5042449;27;101117;-65
2023/08/09 11:19:00;;;;;;;4.35;0.98;;;;;;;23.96;40.67;101057.34;5040436;27;97294;-65
2023/08/09 11:21:28;;;;;;;4.40;0.80;;;;;;;23.97;39.52;101061.72;5040124;27;96764;-66
2023/08/09 11:23:57;;;;;;;1.92;0.70;;;;;;;24.02;39.87;101065.75;5040828;27;99446;-66
2023/08/09 11:26:23;;;;;;;4.00;0.98;;;;;;;24.29;38.07;101072.44;5042774;27;98991;-66
2023/08/09 11:28:50;;;;;;;5.15;0.73;;;;;;;24.50;37.39;101067.84;5038218;27;96722;-66